Latest Coastal Weather Observations for Samuel Hill

IDQ60701

Issued at 12:31 pm EST Wednesday 5 August 2015 (issued every 10 minutes, with the page automatically refreshed every 10 minutes)

About coastal observations | Map of coastal stations | Coastal observations for QLD | Marine services | Other Formats
Station Details ID: 033308 Name: SAMUEL HILL AERO Lat: -22.74 Lon: 150.66 Height: 31.0 m
Data from the previous 72 hours. | See also: Recent months at Samuel Hill
Date/Time
EST
Temp

°C
Wind Pressure Rain
since 9am
mm
Weather Cloud Vis
km
Sea
Height
m
Swell
Dir
 
Speed
knots
Gust
knots
hPa Trend Height
m
Period
s
Dir
05/12:00pm 18.8 SSW 5 9 1017.9 - 0.0 - - 10 - - - -
05/11:30am 18.2 SW 6 10 1018.5 - 0.0 - - 10 - - - -
05/11:00am 17.2 SSE 9 13 1019.0 - 0.0 - - 10 - - - -
05/10:30am 16.5 S 9 13 1019.6 - 0.0 - - 10 - - - -
05/10:00am 16.0 S 9 15 1020.0 - 0.0 - - 10 - - - -
05/09:30am 15.3 S 11 16 1020.3 - 0.0 - - 10 - - - -
05/09:00am 14.8 S 12 19 1020.1 - 0.0 - - 10 - - - -
05/08:30am 14.2 S 9 14 1019.9 - 0.0 - - 10 - - - -
05/08:00am 12.5 SW 4 6 1019.7 - 0.0 - - 10 - - - -
05/07:30am 11.4 WSW 4 5 1019.4 - 0.0 - - 10 - - - -
05/07:00am 9.6 SW 3 4 1019.2 - 0.0 - - 10 - - - -
05/06:30am 8.4 SW 4 6 1018.7 - 0.0 - - 10 - - - -
05/06:00am 8.3 SW 2 4 1018.3 - 0.0 - - 10 - - - -
05/05:30am 9.8 WSW 5 8 1017.6 - 0.0 - - 10 - - - -
05/05:00am 9.1 WSW 3 5 1017.3 - 0.0 - - 10 - - - -
05/04:30am 10.8 SW 5 7 1017.2 - 0.0 - - 10 - - - -
05/04:00am 8.5 SW 2 4 1017.1 - 0.0 - - 10 - - - -
05/03:30am 7.8 WSW 1 4 1016.9 - 0.0 - - 10 - - - -
05/03:00am 8.6 SSE 2 4 1016.8 - 0.0 - - 10 - - - -
05/02:30am 8.3 CALM 0 3 1016.8 - 0.0 - - 10 - - - -
05/02:00am 9.7 CALM 0 0 1017.0 - 0.0 - - 10 - - - -
05/01:30am 10.1 WNW 2 4 1017.1 - 0.0 - - 10 - - - -
05/01:00am 10.2 CALM 0 0 1017.1 - 0.0 - - 10 - - - -
05/12:30am 10.8 CALM 0 0 1017.0 - 0.0 - - 10 - - - -
05/12:00am 11.1 CALM 0 0 1017.1 - 0.0 - - 10 - - - -
 
Date/Time
EST
Temp

°C
Wind Pressure Rain
since 9am
mm
Weather Cloud Vis
km
Sea
Height
m
Swell
Dir
 
Speed
knots
Gust
knots
hPa Trend Height
m
Period
s
Dir
04/11:30pm 11.4 CALM 0 0 1017.3 - 0.0 - Partly cloudy 10 - - - -
04/11:00pm 11.8 CALM 0 0 1017.3 - 0.0 - - 10 - - - -
04/10:30pm 12.2 WNW 1 3 1017.3 - 0.0 - - 10 - - - -
04/10:00pm 12.8 CALM 0 0 1017.3 - 0.0 - - 10 - - - -
04/09:30pm 13.2 ESE 2 4 1017.3 - 0.0 - - 10 - - - -
04/09:00pm 14.1 SW 3 5 1017.1 - 0.0 - Mostly clear 10 - - - -
04/08:30pm 15.8 S 4 5 1017.1 - 0.0 - - 10 - - - -
04/08:00pm 17.0 S 5 6 1016.9 - 0.0 - - 10 - - - -
04/07:30pm 17.3 S 4 6 1016.8 - 0.0 - Partly cloudy 10 - - - -
04/07:00pm 17.2 SSE 5 5 1016.4 - 0.0 - Partly cloudy 10 - - - -
04/06:30pm 18.1 SSE 5 7 1016.2 - 0.0 - Partly cloudy 10 - - - -
04/06:00pm 18.8 SSE 5 7 1016.0 - 0.0 - Mostly clear 10 - - - -
04/05:30pm 19.7 SE 6 9 1016.0 - 0.0 - - 10 - - - -
04/05:00pm 20.8 SSE 7 10 1015.7 - 0.0 - - 10 - - - -
04/04:30pm 22.1 SE 6 9 1015.3 - 0.0 - - 10 - - - -
04/04:00pm 23.6 S 6 8 1015.1 - 0.0 - - 10 - - - -
04/03:30pm 23.9 S 7 9 1015.1 - 0.0 - - - - - - -
04/03:00pm 23.8 S 8 12 1015.2 - 0.0 - - - - - - -
04/02:30pm 23.8 SSE 6 8 1015.2 - 0.0 - - - - - - -
04/02:00pm 24.4 SE 6 10 1015.6 - 0.0 - - - - - - -
04/01:30pm 24.2 SW 5 8 1015.9 - 0.0 - - - - - - -
04/01:00pm 24.1 WNW 6 9 1016.2 - 0.0 - - - - - - -
04/12:30pm 23.1 WSW 4 8 1016.7 - 0.0 - - - - - - -
04/12:00pm 22.4 WSW 5 8 1017.5 - 0.0 - - 10 - - - -
04/11:30am 21.8 W 7 10 1018.0 - 0.0 - - 10 - - - -
04/11:00am 21.4 SW 6 9 1018.7 - 0.0 - - 10 - - - -
04/10:30am 20.7 S 6 9 1019.0 - 0.0 - - 10 - - - -
04/10:00am 19.7 SSW 5 9 1019.4 - 0.0 - - 10 - - - -
04/09:30am 18.2 SSW 4 6 1019.7 - 0.0 - - 10 - - - -
04/09:00am 17.6 SSW 5 7 1019.6 - 0.4 - - 10 - - - -
04/08:30am 16.4 SSW 4 5 1019.3 - 0.4 - - 10 - - - -
04/08:00am 15.4 SW 5 7 1018.9 - 0.4 - Partly cloudy 10 - - - -
04/07:59am 15.3 SW 5 7 1018.9 - 0.4 - Partly cloudy 10 - - - -
04/07:30am 14.2 SW 5 7 1018.5 - 0.4 - Partly cloudy 10 - - - -
04/07:28am 14.1 SW 4 7 1018.5 - 0.4 - Partly cloudy 10 - - - -
04/07:00am 13.3 S 4 6 1018.2 - 0.4 - - 7 - - - -
04/06:30am 12.7 CALM 0 0 1017.5 - 0.4 - - 10 - - - -
04/06:20am 13.0 CALM 0 0 1017.4 - 0.4 - - 10 - - - -
04/06:00am 13.0 CALM 0 0 1017.3 - 0.4 - - 0.5 - - - -
04/05:40am 13.7 CALM 0 0 1017.2 - 0.4 - Partly cloudy 5 - - - -
04/05:30am 13.6 CALM 0 0 1017.2 - 0.4 - Partly cloudy 2 - - - -
04/05:00am 14.4 SE 1 4 1017.0 - 0.4 - Cloudy 0.7 - - - -
04/04:30am 14.4 CALM 0 0 1016.8 - 0.4 - Cloudy 0.8 - - - -
04/04:00am 14.5 CALM 0 0 1016.8 - 0.4 - Partly cloudy 0.6 - - - -
04/03:54am 14.4 CALM 0 0 1016.9 - 0.4 - Partly cloudy 7 - - - -
04/03:39am 13.8 SE 1 4 1016.8 - 0.4 - Partly cloudy 10 - - - -
04/03:30am 13.8 SE 4 4 1016.8 - 0.4 - Partly cloudy 8 - - - -
04/03:00am 13.1 CALM 0 4 1016.8 - 0.4 Rain Partly cloudy 5 - - - -
04/02:30am 13.8 CALM 0 0 1016.4 - 0.2 - Partly cloudy 0.5 - - - -
04/02:00am 13.9 CALM 0 0 1016.3 - 0.2 - Cloudy 0.3 - - - -
04/01:30am 14.6 CALM 0 0 1016.7 - 0.2 - Cloudy 0.1 - - - -
04/01:00am 14.4 CALM 0 0 1016.9 - 0.2 - Cloudy 0.1 - - - -
04/12:30am 14.3 CALM 0 0 1017.1 - 0.2 - Cloudy 0.3 - - - -
04/12:00am 14.1 CALM 0 0 1017.2 - 0.2 - Cloudy 0.1 - - - -
 
Date/Time
EST
Temp

°C
Wind Pressure Rain
since 9am
mm
Weather Cloud Vis
km
Sea
Height
m
Swell
Dir
 
Speed
knots
Gust
knots
hPa Trend Height
m
Period
s
Dir
03/11:30pm 13.8 CALM 0 0 1017.4 - 0.2 - Cloudy 0.3 - - - -
03/11:00pm 14.0 CALM 0 0 1017.5 - 0.2 - Cloudy 0.5 - - - -
03/10:30pm 14.5 WSW 1 5 1017.7 - 0.2 - Cloudy 0.2 - - - -
03/10:00pm 13.5 CALM 0 0 1017.6 - 0.2 - Cloudy 0.2 - - - -
03/09:43pm 13.7 CALM 0 0 1017.7 - 0.2 - Partly cloudy 0.5 - - - -
03/09:30pm 13.9 CALM 0 0 1017.7 - 0.2 - - 0.6 - - - -
03/09:22pm 13.9 CALM 0 0 1017.9 - 0.2 - - 5 - - - -
03/09:00pm 13.9 CALM 0 0 1018.1 - 0.2 - - 10 - - - -
03/08:30pm 15.1 CALM 0 0 1018.3 - 0.2 - Partly cloudy 10 - - - -
03/08:00pm 15.9 CALM 0 0 1018.0 - 0.2 - Partly cloudy 10 - - - -
03/07:30pm 16.0 CALM 0 0 1017.6 - 0.2 - - 10 - - - -
03/07:00pm 17.1 NNE 2 3 1017.4 - 0.2 - - 10 - - - -
03/06:30pm 17.8 NNE 4 5 1017.1 - 0.2 - - 10 - - - -
03/06:00pm 19.6 NNE 4 4 1016.8 - 0.2 - - 10 - - - -
03/05:30pm 20.6 NNE 6 8 1016.6 - 0.2 - - 10 - - - -
03/05:00pm 22.0 NE 7 11 1016.6 - 0.2 - - 10 - - - -
03/04:30pm 23.0 N 8 11 1016.5 - 0.2 - - 10 - - - -
03/04:00pm 23.5 NNE 8 12 1016.6 - 0.2 - - 10 - - - -
03/03:30pm 24.4 NNE 8 12 1016.4 - 0.2 - - 10 - - - -
03/03:00pm 24.4 N 8 11 1016.4 - 0.2 - Mostly clear 10 - - - -
03/02:30pm 24.9 NNE 8 11 1016.5 - 0.2 - Partly cloudy 10 - - - -
03/02:00pm 25.7 NE 7 11 1016.8 - 0.2 - Partly cloudy 10 - - - -
03/01:30pm 25.1 NNE 7 13 1017.2 - 0.2 - - 10 - - - -
03/01:00pm 25.0 N 7 11 1017.6 - 0.2 - Partly cloudy 10 - - - -
03/12:30pm 24.1 NW 5 8 1018.2 - 0.2 - Partly cloudy 10 - - - -
03/12:00pm 23.6 N 5 7 1018.5 - 0.2 Recent precip. Mostly cloudy 10 - - - -
03/11:30am 24.4 N 6 9 1019.1 - 0.2 - Partly cloudy 10 - - - -
03/11:00am 23.4 N 6 10 1019.6 - 0.0 - Partly cloudy 10 - - - -
03/10:30am 22.7 NNE 5 10 1020.0 - 0.0 - Partly cloudy 10 - - - -
03/10:00am 22.4 NE 4 8 1020.5 - 0.0 - Partly cloudy 10 - - - -
03/09:30am 20.8 E 3 4 1020.9 - 0.0 - - 10 - - - -
03/09:00am 18.4 E 3 3 1020.8 - 0.2 - - 10 - - - -
03/08:30am 16.3 CALM 0 0 1020.4 - 0.2 - Partly cloudy 10 - - - -
03/08:26am 16.1 CALM 0 0 1020.4 - 0.2 - Partly cloudy 10 - - - -
03/08:11am 14.9 CALM 0 0 1020.1 - 0.2 - Partly cloudy 10 - - - -
03/08:00am 13.7 CALM 0 0 1020.0 - 0.2 - Partly cloudy 5 - - - -
03/07:30am 11.6 CALM 0 0 1020.0 - 0.2 - Partly cloudy 1 - - - -
03/07:00am 10.5 CALM 0 0 1019.9 - 0.2 - Cloudy 0.7 - - - -
03/06:30am 10.3 CALM 0 0 1019.8 - 0.2 - Cloudy 0.5 - - - -
03/06:00am 10.5 CALM 0 0 1019.7 - 0.2 - Cloudy 0.5 - - - -
03/05:30am 10.7 CALM 0 0 1019.3 - 0.2 - Partly cloudy 0.8 - - - -
03/05:00am 10.7 CALM 0 0 1019.3 - 0.2 - Cloudy 0.3 - - - -
03/04:30am 10.8 CALM 0 0 1019.2 - 0.2 - Cloudy 0.4 - - - -
03/04:00am 10.9 CALM 0 0 1019.3 - 0.2 - Cloudy 0.6 - - - -
03/03:30am 11.2 CALM 0 0 1019.4 - 0.2 - Cloudy 0.3 - - - -
03/03:00am 11.4 CALM 0 0 1019.4 - 0.2 - Cloudy 0.3 - - - -
03/02:30am 11.4 CALM 0 0 1019.4 - 0.2 - Cloudy 0.3 - - - -
03/02:00am 11.2 CALM 0 0 1019.6 - 0.2 - Cloudy 0.5 - - - -
03/01:30am 11.5 CALM 0 0 1019.8 - 0.2 - Cloudy 0.5 - - - -
03/01:00am 11.5 CALM 0 0 1020.1 - 0.2 - Cloudy 0.3 - - - -
03/12:30am 11.8 CALM 0 0 1020.4 - 0.2 - Cloudy 0.2 - - - -
03/12:00am 11.9 CALM 0 0 1020.5 - 0.2 - Mostly cloudy 0.3 - - - -
 
Date/Time
EST
Temp

°C
Wind Pressure Rain
since 9am
mm
Weather Cloud Vis
km
Sea
Height
m
Swell
Dir
 
Speed
knots
Gust
knots
hPa Trend Height
m
Period
s
Dir
02/11:30pm 11.7 CALM 0 0 1020.7 - 0.2 - Cloudy 4 - - - -
02/11:08pm 11.8 CALM 0 0 1020.8 - 0.2 - Partly cloudy 1 - - - -
02/11:01pm 11.9 CALM 0 0 1020.8 - 0.2 - Partly cloudy 5 - - - -
02/11:00pm 11.9 CALM 0 0 1020.8 - 0.2 - Partly cloudy 10 - - - -
02/10:30pm 12.0 CALM 0 0 1021.0 - 0.2 - Partly cloudy 10 - - - -
02/10:00pm 12.6 CALM 0 0 1021.1 - 0.2 - - 10 - - - -
02/09:30pm 12.8 CALM 0 0 1021.0 - 0.2 - - 10 - - - -
02/09:00pm 13.4 CALM 0 0 1021.0 - 0.2 - - 10 - - - -
02/08:30pm 14.3 CALM 0 0 1020.9 - 0.2 - - 10 - - - -
02/08:00pm 14.4 CALM 0 0 1020.7 - 0.2 - - 10 - - - -
02/07:57pm 15.1 CALM 0 0 1020.7 - 0.2 - - 10 - - - -
02/07:42pm 15.9 E 3 5 1020.6 - 0.2 - - 7 - - - -
02/07:30pm 15.9 CALM 0 0 1020.6 - 0.2 - - 10 - - - -
02/07:00pm 15.9 CALM 0 0 1020.5 - 0.2 - - 10 - - - -
02/06:30pm 17.3 ENE 3 4 1020.4 - 0.2 - - 10 - - - -
02/06:00pm 18.9 ENE 3 4 1020.1 - 0.2 - - 10 - - - -
02/05:30pm 20.4 ENE 5 7 1020.1 - 0.2 - - 10 - - - -
02/05:00pm 22.0 E 4 6 1019.7 - 0.2 - - 10 - - - -
02/04:30pm 22.7 ENE 6 9 1019.6 - 0.2 - - 10 - - - -
02/04:00pm 23.4 E 7 9 1019.5 - 0.2 - Partly cloudy 10 - - - -
02/03:30pm 23.5 E 8 11 1019.6 - 0.2 - Partly cloudy 10 - - - -
02/03:00pm 22.7 ENE 5 7 1019.7 - 0.2 - Cloudy 10 - - - -
02/02:30pm 22.9 ENE 7 10 1020.0 - 0.2 - Partly cloudy 10 - - - -
02/02:00pm 23.2 ENE 7 11 1020.3 - 0.2 - Partly cloudy 10 - - - -
02/01:30pm 23.8 ESE 6 8 1020.7 - 0.2 - Partly cloudy 10 - - - -
02/01:00pm 23.0 NE 6 8 1021.2 - 0.2 - Partly cloudy 10 - - - -

Other Formats:

Comma delimited format used in spreadsheet applications
http://www.bom.gov.au/fwo/IDQ60701/IDQ60701.94370.axf

JavaScript Object Notation format (JSON) in row-major order
http://www.bom.gov.au/fwo/IDQ60701/IDQ60701.94370.json